Time;durP1;ratioP1;P1;durP2;ratioP2;P2;SDS_P1;SDS_P2;PMS_P1;PMS_P2;Temp;Humidity;BMP_temperature;BMP_pressure;BME280_temperature;BME280_humidity;BME280_pressure;Samples;Min_cycle;Max_cycle;Signal;HPM_P1;HPM_P2
2023/09/20 00:00:52;;;;;;;6.22;2.00;;;19.60;97.70;;;;;;5020653;28;20549;-83
2023/09/20 00:03:19;;;;;;;2.88;1.65;;;19.70;97.60;;;;;;5037622;28;20025;-83
2023/09/20 00:05:47;;;;;;;5.53;1.45;;;19.70;97.70;;;;;;5021647;28;20416;-84
2023/09/20 00:08:14;;;;;;;4.30;1.58;;;19.70;97.60;;;;;;5037728;28;20071;-83
2023/09/20 00:10:40;;;;;;;5.25;1.85;;;19.70;97.60;;;;;;5037215;28;20036;-83
2023/09/20 00:13:06;;;;;;;5.57;1.90;;;19.70;97.60;;;;;;5021218;28;20033;-84
2023/09/20 00:15:32;;;;;;;5.68;1.60;;;19.70;97.60;;;;;;5029857;28;20025;-83
2023/09/20 00:17:58;;;;;;;4.28;1.83;;;19.70;97.60;;;;;;5010959;28;20064;-83
2023/09/20 00:20:25;;;;;;;4.45;1.83;;;19.70;97.60;;;;;;5021210;28;20063;-83
2023/09/20 00:22:51;;;;;;;4.75;2.08;;;19.70;97.60;;;;;;5018507;28;20076;-83
2023/09/20 00:25:17;;;;;;;4.82;1.95;;;19.70;97.60;;;;;;5017511;28;20029;-83
2023/09/20 00:27:46;;;;;;;8.32;2.00;;;19.70;97.60;;;;;;5016048;28;20025;-83
2023/09/20 00:30:15;;;;;;;3.38;1.85;;;19.70;97.60;;;;;;5017588;28;20026;-83
2023/09/20 00:32:41;;;;;;;6.18;1.67;;;19.70;97.60;;;;;;5032089;28;20029;-83
2023/09/20 00:35:11;;;;;;;6.10;2.17;;;19.70;97.60;;;;;;5004714;28;20017;-84
2023/09/20 00:37:41;;;;;;;6.10;2.13;;;19.70;97.70;;;;;;5035639;28;20017;-83
2023/09/20 00:40:20;;;;;;;5.53;2.42;;;19.70;97.70;;;;;;5021001;28;20116;-83
2023/09/20 00:42:50;;;;;;;3.63;1.60;;;19.70;97.70;;;;;;5036129;28;20017;-83
2023/09/20 00:45:20;;;;;;;4.72;1.85;;;19.70;97.70;;;;;;5037590;28;20531;-83
2023/09/20 00:47:51;;;;;;;8.13;2.27;;;19.70;97.70;;;;;;5036936;28;20078;-83
2023/09/20 00:50:18;;;;;;;6.55;1.80;;;19.70;97.70;;;;;;5054760;28;20032;-84
2023/09/20 00:52:47;;;;;;;3.15;1.83;;;19.70;97.70;;;;;;5054584;28;20029;-83
2023/09/20 00:55:20;;;;;;;2.95;1.65;;;19.70;97.80;;;;;;5036845;28;20399;-83
2023/09/20 00:57:48;;;;;;;5.57;2.38;;;19.70;97.80;;;;;;5021072;28;20017;-83
2023/09/20 01:00:27;;;;;;;5.18;1.95;;;19.70;97.80;;;;;;5053020;28;20483;-83
2023/09/20 01:02:57;;;;;;;5.70;2.08;;;19.70;97.80;;;;;;5043588;28;20056;-83
2023/09/20 01:05:25;;;;;;;5.82;2.10;;;19.70;97.70;;;;;;5051308;28;20013;-83
2023/09/20 01:07:54;;;;;;;2.53;1.73;;;19.70;97.70;;;;;;5061442;28;20088;-83
2023/09/20 01:10:24;;;;;;;4.93;2.10;;;19.70;97.80;;;;;;5045389;28;20040;-82
2023/09/20 01:12:56;;;;;;;5.68;1.92;;;19.70;97.80;;;;;;5060579;28;20026;-83
2023/09/20 01:15:22;;;;;;;2.95;1.50;;;19.70;97.80;;;;;;5059941;28;20033;-83
2023/09/20 01:17:53;;;;;;;4.97;1.75;;;19.70;97.80;;;;;;5057009;28;20479;-83
2023/09/20 01:20:20;;;;;;;6.18;1.98;;;19.70;98.10;;;;;;5042295;28;20084;-84
2023/09/20 01:22:47;;;;;;;7.28;2.20;;;19.70;97.80;;;;;;5019788;28;20461;-83
2023/09/20 01:25:24;;;;;;;6.25;2.38;;;19.70;97.80;;;;;;5036436;28;20021;-83
2023/09/20 01:27:51;;;;;;;2.40;1.30;;;19.60;97.80;;;;;;5053744;28;20017;-83
2023/09/20 01:30:17;;;;;;;5.43;1.88;;;19.60;97.80;;;;;;5036072;28;20381;-83
2023/09/20 01:32:44;;;;;;;4.47;1.55;;;19.60;97.80;;;;;;5002373;28;20033;-83
2023/09/20 01:35:10;;;;;;;5.10;1.85;;;19.50;97.80;;;;;;5036197;28;20357;-83
2023/09/20 01:37:37;;;;;;;5.05;1.65;;;19.60;97.80;;;;;;5035524;28;20024;-83
2023/09/20 01:40:15;;;;;;;3.47;1.90;;;19.50;97.80;;;;;;5053734;28;20024;-82
2023/09/20 01:42:43;;;;;;;4.60;2.00;;;19.50;97.80;;;;;;5017182;28;20413;-83
2023/09/20 01:45:22;;;;;;;5.07;2.20;;;19.50;97.90;;;;;;5019456;28;20028;-83
2023/09/20 01:47:53;;;;;;;4.80;1.88;;;19.40;97.90;;;;;;5020829;28;20025;-83
2023/09/20 01:50:20;;;;;;;6.03;2.20;;;19.40;97.90;;;;;;5018370;28;20060;-83
2023/09/20 01:52:54;;;;;;;5.60;1.80;;;19.40;97.90;;;;;;5035474;28;20033;-83
2023/09/20 01:55:21;;;;;;;3.95;1.75;;;19.40;97.90;;;;;;5020417;28;20025;-83
2023/09/20 01:57:52;;;;;;;3.90;1.70;;;19.40;98.00;;;;;;5019078;28;20017;-83
2023/09/20 02:00:36;;;;;;;4.03;1.65;;;19.30;98.00;;;;;;5036033;28;20583;-82
2023/09/20 02:03:10;;;;;;;2.42;1.50;;;19.30;98.00;;;;;;5053664;28;20020;-83
2023/09/20 02:05:36;;;;;;;6.25;2.30;;;19.30;98.00;;;;;;5004481;28;20024;-83
2023/09/20 02:08:03;;;;;;;5.78;2.25;;;19.20;98.10;;;;;;5035430;28;20016;-82
2023/09/20 02:10:28;;;;;;;3.78;1.90;;;19.20;98.10;;;;;;5035306;28;20112;-83
2023/09/20 02:12:56;;;;;;;5.28;2.00;;;19.20;98.10;;;;;;5034836;28;20123;-83
2023/09/20 02:15:29;;;;;;;4.65;2.00;;;19.20;98.10;;;;;;5035707;28;20020;-83
2023/09/20 02:17:55;;;;;;;3.53;1.73;;;19.20;98.10;;;;;;5053244;28;20051;-83
2023/09/20 02:20:23;;;;;;;5.03;2.35;;;19.10;98.10;;;;;;5019672;28;20025;-82
2023/09/20 02:22:54;;;;;;;4.82;2.10;;;19.20;98.20;;;;;;5049449;28;20408;-82
2023/09/20 02:25:21;;;;;;;4.72;2.00;;;19.10;98.50;;;;;;5019401;28;20051;-83
2023/09/20 02:27:49;;;;;;;4.88;1.80;;;19.10;98.50;;;;;;5016311;28;20028;-83
2023/09/20 02:30:16;;;;;;;2.90;1.73;;;19.10;98.30;;;;;;5017478;28;20039;-83
2023/09/20 02:32:43;;;;;;;4.72;1.70;;;19.10;98.30;;;;;;5033870;28;20115;-83
2023/09/20 02:35:09;;;;;;;6.47;2.00;;;19.10;98.30;;;;;;5030629;28;20026;-83
2023/09/20 02:37:35;;;;;;;5.60;1.83;;;19.00;98.30;;;;;;5050463;28;20034;-84
2023/09/20 02:40:07;;;;;;;3.85;1.52;;;19.00;98.30;;;;;;5052992;28;20032;-83
2023/09/20 02:42:48;;;;;;;8.48;2.25;;;19.00;98.40;;;;;;5035015;28;20475;-83
2023/09/20 02:45:17;;;;;;;4.47;2.00;;;18.90;98.40;;;;;;5018341;28;20041;-83
2023/09/20 02:47:44;;;;;;;5.07;2.05;;;18.90;98.40;;;;;;5019701;28;20025;-84
2023/09/20 02:50:12;;;;;;;3.65;1.90;;;18.90;98.40;;;;;;5035232;28;20017;-84
2023/09/20 02:52:41;;;;;;;5.30;2.05;;;18.90;98.50;;;;;;5036108;28;20475;-83
2023/09/20 02:55:13;;;;;;;4.05;1.73;;;18.80;98.50;;;;;;5046695;28;20380;-83
2023/09/20 02:57:40;;;;;;;4.60;1.80;;;18.80;98.50;;;;;;5050520;28;20065;-83
2023/09/20 03:00:15;;;;;;;4.32;1.90;;;18.80;98.60;;;;;;5053784;28;20142;-83
2023/09/20 03:02:52;;;;;;;3.38;1.70;;;18.80;98.60;;;;;;5064163;28;20020;-82
2023/09/20 03:05:25;;;;;;;3.83;1.58;;;18.80;98.60;;;;;;5056946;28;20016;-83
2023/09/20 03:07:53;;;;;;;3.47;1.50;;;18.80;98.60;;;;;;5047207;28;20108;-83
2023/09/20 03:10:21;;;;;;;3.40;1.63;;;18.70;98.60;;;;;;5045235;28;20036;-83
2023/09/20 03:12:51;;;;;;;5.40;1.63;;;18.70;98.70;;;;;;5047590;28;20467;-83
2023/09/20 03:15:23;;;;;;;3.28;1.48;;;18.70;98.70;;;;;;5038178;28;20357;-83
2023/09/20 03:17:57;;;;;;;3.58;1.70;;;18.60;98.70;;;;;;5056399;28;20432;-83
2023/09/20 03:20:25;;;;;;;4.18;1.70;;;18.60;98.80;;;;;;5038894;28;20025;-83
2023/09/20 03:22:53;;;;;;;4.38;2.05;;;18.60;98.90;;;;;;5038338;28;20115;-83
2023/09/20 03:25:23;;;;;;;7.30;2.30;;;18.60;98.90;;;;;;5033634;28;20013;-83
2023/09/20 03:27:50;;;;;;;3.50;1.77;;;18.60;98.90;;;;;;5056657;28;20108;-83
2023/09/20 03:30:16;;;;;;;4.30;2.17;;;18.60;98.90;;;;;;5038226;28;20033;-83
2023/09/20 03:32:44;;;;;;;3.08;1.58;;;18.60;98.90;;;;;;5037630;28;20025;-83
2023/09/20 03:35:12;;;;;;;5.57;2.15;;;18.60;99.00;;;;;;5005099;28;20525;-83
2023/09/20 03:37:43;;;;;;;5.05;1.90;;;18.60;99.00;;;;;;5038782;28;20037;-83
2023/09/20 03:40:17;;;;;;;4.25;1.55;;;18.60;99.00;;;;;;5022358;28;20025;-83
2023/09/20 03:42:48;;;;;;;3.55;1.80;;;18.60;99.00;;;;;;5038204;28;20017;-82
2023/09/20 03:45:15;;;;;;;4.28;1.80;;;18.60;99.10;;;;;;5021623;28;20048;-82
2023/09/20 03:47:57;;;;;;;3.13;1.83;;;18.50;99.10;;;;;;5021192;28;20029;-82
2023/09/20 03:50:23;;;;;;;5.15;1.75;;;18.50;99.10;;;;;;5055539;28;20460;-82
2023/09/20 03:52:49;;;;;;;5.70;1.90;;;18.50;99.20;;;;;;5055517;28;20457;-83
2023/09/20 03:55:15;;;;;;;4.05;1.60;;;18.50;99.20;;;;;;5023873;28;20048;-83
2023/09/20 03:57:40;;;;;;;3.47;1.65;;;18.60;99.20;;;;;;5037621;28;20055;-83
2023/09/20 04:00:11;;;;;;;3.45;1.88;;;18.50;99.20;;;;;;5038327;28;20021;-83
2023/09/20 04:02:39;;;;;;;2.97;1.60;;;18.60;99.30;;;;;;5021181;28;20045;-83
2023/09/20 04:05:13;;;;;;;3.83;1.65;;;18.60;99.30;;;;;;5050392;28;20071;-83
2023/09/20 04:07:40;;;;;;;3.35;1.67;;;18.60;99.30;;;;;;5002089;28;20072;-83
2023/09/20 04:10:07;;;;;;;6.20;1.77;;;18.60;99.30;;;;;;5024640;28;20087;-83
2023/09/20 04:12:33;;;;;;;2.28;1.65;;;18.60;99.30;;;;;;5038231;28;20504;-84
2023/09/20 04:14:59;;;;;;;4.82;1.70;;;18.60;99.40;;;;;;5039181;28;20372;-83
2023/09/20 04:17:25;;;;;;;4.90;2.00;;;18.60;99.40;;;;;;5035227;28;20029;-83
2023/09/20 04:19:51;;;;;;;4.57;1.83;;;18.60;99.40;;;;;;5029570;28;20057;-83
2023/09/20 04:22:17;;;;;;;4.30;1.80;;;18.60;99.40;;;;;;5034361;28;20389;-84
2023/09/20 04:24:43;;;;;;;4.60;1.65;;;18.60;99.40;;;;;;5018108;28;20025;-83
2023/09/20 04:27:08;;;;;;;5.20;1.80;;;18.60;99.40;;;;;;5021336;28;20415;-84
2023/09/20 04:29:35;;;;;;;3.47;1.80;;;18.60;99.50;;;;;;5018092;28;20028;-83
2023/09/20 04:32:01;;;;;;;5.72;2.00;;;18.60;99.50;;;;;;5034348;28;20018;-83
2023/09/20 04:34:27;;;;;;;3.83;1.90;;;18.60;99.50;;;;;;5034144;28;20017;-83
2023/09/20 04:36:53;;;;;;;4.20;1.90;;;18.60;99.60;;;;;;5034874;28;20449;-83
2023/09/20 04:39:24;;;;;;;3.15;1.90;;;18.60;99.60;;;;;;5014474;28;20036;-84
2023/09/20 04:41:50;;;;;;;4.47;2.00;;;18.60;99.60;;;;;;5034212;28;20020;-83
2023/09/20 04:44:16;;;;;;;4.10;1.65;;;18.60;99.60;;;;;;5022090;28;20041;-82
2023/09/20 04:46:42;;;;;;;2.92;1.60;;;18.60;99.60;;;;;;5049805;28;20098;-82
2023/09/20 04:49:10;;;;;;;4.75;1.60;;;18.60;99.60;;;;;;5026257;28;20021;-83
2023/09/20 04:51:37;;;;;;;4.78;1.58;;;18.60;99.60;;;;;;5034884;28;20045;-83
2023/09/20 04:54:05;;;;;;;4.45;1.77;;;18.60;99.60;;;;;;5036866;28;20048;-83
2023/09/20 04:56:31;;;;;;;5.70;2.25;;;18.60;99.60;;;;;;5051169;28;20041;-82
2023/09/20 04:58:57;;;;;;;2.47;1.58;;;18.50;99.70;;;;;;5039009;28;20025;-82
2023/09/20 05:01:23;;;;;;;6.53;1.90;;;18.50;99.70;;;;;;5013279;28;20470;-83
2023/09/20 05:03:50;;;;;;;4.40;1.88;;;18.50;99.70;;;;;;5017577;28;20075;-83
2023/09/20 05:06:16;;;;;;;4.70;1.90;;;18.50;99.70;;;;;;5016049;28;20022;-83
2023/09/20 05:08:42;;;;;;;6.47;2.22;;;18.50;99.70;;;;;;5018253;28;20491;-83
2023/09/20 05:11:10;;;;;;;4.50;2.00;;;18.40;99.70;;;;;;5013083;28;20116;-83
2023/09/20 05:13:36;;;;;;;4.22;2.50;;;18.50;99.80;;;;;;5007742;28;20547;-83
2023/09/20 05:16:03;;;;;;;4.78;2.08;;;18.50;99.70;;;;;;5016860;28;20462;-84
2023/09/20 05:18:29;;;;;;;6.28;2.10;;;18.50;99.80;;;;;;5026187;28;20048;-84
2023/09/20 05:20:55;;;;;;;5.95;1.98;;;18.40;99.70;;;;;;5021007;28;20037;-83
2023/09/20 05:23:21;;;;;;;4.38;2.00;;;18.50;99.80;;;;;;5028986;28;20066;-82
2023/09/20 05:25:48;;;;;;;4.93;2.28;;;18.40;99.80;;;;;;5032455;28;20021;-82
2023/09/20 05:28:15;;;;;;;4.35;1.95;;;18.40;99.80;;;;;;5049646;28;20456;-83
2023/09/20 05:30:44;;;;;;;4.57;1.80;;;18.40;99.80;;;;;;5026124;28;20026;-83
2023/09/20 05:33:11;;;;;;;4.20;2.03;;;18.40;99.80;;;;;;5052628;28;20104;-83
2023/09/20 05:35:39;;;;;;;3.90;1.80;;;18.40;99.80;;;;;;5020373;28;20028;-84
2023/09/20 05:38:09;;;;;;;6.32;2.28;;;18.40;99.80;;;;;;5030662;28;20009;-84
2023/09/20 05:40:35;;;;;;;3.05;1.88;;;18.40;99.90;;;;;;5053000;28;20119;-83
2023/09/20 05:43:03;;;;;;;2.47;1.75;;;18.40;99.90;;;;;;5032014;28;20551;-83
2023/09/20 05:45:34;;;;;;;5.32;1.88;;;18.40;99.90;;;;;;5037848;28;20032;-83
2023/09/20 05:48:01;;;;;;;3.58;1.90;;;18.40;99.90;;;;;;5023192;28;20028;-83
2023/09/20 05:50:33;;;;;;;3.58;1.77;;;18.30;99.90;;;;;;5026372;28;20398;-83
2023/09/20 05:53:06;;;;;;;3.22;1.80;;;18.40;99.90;;;;;;5034108;28;20449;-84
2023/09/20 05:55:36;;;;;;;3.67;1.85;;;18.40;99.90;;;;;;5056389;28;20029;-83
2023/09/20 05:58:02;;;;;;;3.10;1.90;;;18.40;99.90;;;;;;5050537;28;20017;-83
2023/09/20 06:00:29;;;;;;;5.00;2.00;;;18.40;99.90;;;;;;5016391;28;20029;-83
2023/09/20 06:02:59;;;;;;;4.47;2.03;;;18.40;99.90;;;;;;5014476;28;20111;-83
2023/09/20 06:05:25;;;;;;;3.65;1.55;;;18.40;99.90;;;;;;5003669;28;20025;-83
2023/09/20 06:07:53;;;;;;;4.53;2.00;;;18.40;99.90;;;;;;5034387;28;20029;-82
2023/09/20 06:10:19;;;;;;;3.97;1.90;;;18.50;99.90;;;;;;5053822;28;20108;-82
2023/09/20 06:12:46;;;;;;;2.28;1.70;;;18.40;99.90;;;;;;5019408;28;20025;-83
2023/09/20 06:15:15;;;;;;;5.00;1.90;;;18.40;99.90;;;;;;5053872;28;20483;-82
2023/09/20 06:17:47;;;;;;;3.33;1.60;;;18.50;99.90;;;;;;5016291;28;20028;-82
2023/09/20 06:20:19;;;;;;;3.85;1.77;;;18.50;99.90;;;;;;5015776;28;20470;-83
2023/09/20 06:22:51;;;;;;;2.42;1.63;;;18.50;99.90;;;;;;5022744;28;20108;-82
2023/09/20 06:25:19;;;;;;;3.10;1.75;;;18.50;99.90;;;;;;5019832;28;20029;-83
2023/09/20 06:27:45;;;;;;;5.85;1.83;;;18.60;99.90;;;;;;5035681;28;20095;-82
2023/09/20 06:30:14;;;;;;;4.93;2.00;;;18.60;99.90;;;;;;5035489;28;20132;-83
2023/09/20 06:32:41;;;;;;;4.30;2.10;;;18.70;99.90;;;;;;5053932;28;20071;-82
2023/09/20 06:35:08;;;;;;;3.63;1.70;;;18.70;99.90;;;;;;5019530;28;20024;-82
2023/09/20 06:37:34;;;;;;;4.80;1.60;;;18.70;99.90;;;;;;5062973;28;20006;-82
2023/09/20 06:40:00;;;;;;;4.55;1.92;;;18.70;99.90;;;;;;5042903;28;20024;-82
2023/09/20 06:42:29;;;;;;;6.55;1.70;;;18.80;99.90;;;;;;5041616;28;20048;-82
2023/09/20 06:44:56;;;;;;;5.55;2.30;;;18.80;99.90;;;;;;5075968;28;20025;-82
2023/09/20 06:47:24;;;;;;;4.38;1.50;;;18.80;99.90;;;;;;5055660;28;20029;-82
2023/09/20 06:49:51;;;;;;;4.15;1.80;;;18.80;99.90;;;;;;5037193;28;20025;-83
2023/09/20 06:52:18;;;;;;;5.18;1.58;;;18.80;99.90;;;;;;5054058;28;20035;-82
2023/09/20 06:54:45;;;;;;;4.15;1.80;;;18.80;99.90;;;;;;5003122;28;20021;-82
2023/09/20 06:57:17;;;;;;;3.72;1.60;;;18.80;99.90;;;;;;5035569;28;20041;-83
2023/09/20 06:59:45;;;;;;;2.60;1.70;;;18.90;99.90;;;;;;5035711;28;20066;-83
2023/09/20 07:02:13;;;;;;;4.43;1.75;;;19.00;99.90;;;;;;5035412;28;20037;-83
2023/09/20 07:04:39;;;;;;;3.63;1.70;;;19.00;99.90;;;;;;5053162;28;20045;-82
2023/09/20 07:07:07;;;;;;;8.43;2.75;;;19.00;99.90;;;;;;5035130;28;20051;-83
2023/09/20 07:09:34;;;;;;;5.93;1.80;;;19.00;99.90;;;;;;5034847;28;20021;-82
2023/09/20 07:12:03;;;;;;;5.60;1.95;;;19.00;99.90;;;;;;5034492;28;20028;-83
2023/09/20 07:14:31;;;;;;;3.97;1.67;;;19.10;99.90;;;;;;5018881;28;20017;-82
2023/09/20 07:16:57;;;;;;;3.80;1.70;;;19.10;99.90;;;;;;5034764;28;20013;-83
2023/09/20 07:19:26;;;;;;;3.92;2.00;;;19.10;99.90;;;;;;5018552;28;20041;-83
2023/09/20 07:21:52;;;;;;;2.80;1.80;;;19.20;99.90;;;;;;5053263;28;20071;-83
2023/09/20 07:24:20;;;;;;;3.75;1.77;;;19.20;99.90;;;;;;5018128;28;20082;-83
2023/09/20 07:26:46;;;;;;;26.23;4.47;;;19.20;99.90;;;;;;5018845;28;20025;-83
2023/09/20 07:29:15;;;;;;;55.03;9.85;;;19.30;99.90;;;;;;5018199;28;20032;-82
2023/09/20 07:31:42;;;;;;;20.20;4.73;;;19.30;99.90;;;;;;5052749;28;20025;-83
2023/09/20 07:34:13;;;;;;;7.28;2.92;;;19.40;99.90;;;;;;5034453;28;20267;-82
2023/09/20 07:36:49;;;;;;;10.57;2.38;;;19.50;99.90;;;;;;5034570;28;20017;-82
2023/09/20 07:39:17;;;;;;;15.90;2.85;;;19.50;99.90;;;;;;5036326;28;20021;-82
2023/09/20 07:41:44;;;;;;;13.90;2.95;;;19.50;99.90;;;;;;5018665;28;20104;-82
2023/09/20 07:44:13;;;;;;;9.95;2.83;;;19.50;99.90;;;;;;5055907;28;20487;-83
2023/09/20 07:46:42;;;;;;;4.15;2.10;;;19.50;99.90;;;;;;5022083;28;20029;-83
2023/09/20 07:49:13;;;;;;;15.07;3.00;;;19.60;99.90;;;;;;5021766;28;20368;-82
2023/09/20 07:51:39;;;;;;;23.85;6.07;;;19.60;99.90;;;;;;5038445;28;20040;-83
2023/09/20 07:54:14;;;;;;;14.98;3.47;;;19.70;99.90;;;;;;5021624;28;20029;-82
2023/09/20 07:56:43;;;;;;;4.80;2.42;;;19.70;99.90;;;;;;5039160;28;20059;-83
2023/09/20 07:59:09;;;;;;;12.93;3.60;;;19.70;99.90;;;;;;5038082;28;20021;-83
2023/09/20 08:01:35;;;;;;;19.73;4.28;;;19.80;99.90;;;;;;5038111;28;20025;-82
2023/09/20 08:04:06;;;;;;;9.48;2.90;;;19.80;99.90;;;;;;5021241;28;20036;-83
2023/09/20 08:06:36;;;;;;;43.67;7.45;;;19.80;99.90;;;;;;5038253;28;20052;-82
2023/09/20 08:09:05;;;;;;;22.92;5.10;;;19.90;99.90;;;;;;5039091;28;20536;-83
2023/09/20 08:11:32;;;;;;;20.25;4.30;;;19.90;99.90;;;;;;5038370;28;20036;-83
2023/09/20 08:14:00;;;;;;;9.15;3.33;;;20.00;99.90;;;;;;5022170;28;20453;-83
2023/09/20 08:16:33;;;;;;;16.77;3.80;;;20.10;99.90;;;;;;5038293;28;20553;-83
2023/09/20 08:21:42;;;;;;;21.40;6.03;;;20.20;99.90;;;;;;5056176;28;20063;-83
2023/09/20 08:59:54;;;;;;;2.30;1.58;;;20.60;99.50;;;;;;5055419;28;20086;-83
2023/09/20 09:02:24;;;;;;;6.55;1.60;;;20.60;99.40;;;;;;5037394;28;20029;-83
2023/09/20 09:04:53;;;;;;;20.83;3.33;;;20.60;99.40;;;;;;5021793;28;20040;-83
2023/09/20 09:07:23;;;;;;;7.40;2.00;;;20.60;99.40;;;;;;5021008;28;20350;-83
2023/09/20 09:09:49;;;;;;;15.23;2.80;;;20.70;99.50;;;;;;5037128;28;20054;-82
2023/09/20 09:12:16;;;;;;;6.68;2.33;;;20.70;99.40;;;;;;5054594;28;20017;-82
2023/09/20 09:14:42;;;;;;;4.22;1.92;;;20.70;99.40;;;;;;5037141;28;20021;-82
2023/09/20 09:17:09;;;;;;;4.85;1.60;;;20.70;99.40;;;;;;5047089;28;20032;-83
2023/09/20 09:19:38;;;;;;;2.95;1.30;;;20.80;99.40;;;;;;5052414;28;20037;-83
2023/09/20 09:22:05;;;;;;;3.30;1.50;;;20.90;99.40;;;;;;5036925;28;20103;-83
2023/09/20 09:24:47;;;;;;;3.28;1.45;;;20.90;99.30;;;;;;5020530;28;20106;-82
2023/09/20 09:27:15;;;;;;;3.28;1.58;;;20.90;99.20;;;;;;5054481;28;20017;-83
2023/09/20 09:29:46;;;;;;;2.85;1.58;;;20.90;99.10;;;;;;5018437;28;20368;-82
2023/09/20 09:32:13;;;;;;;5.97;1.73;;;20.90;99.10;;;;;;5016885;28;20024;-82
2023/09/20 09:34:41;;;;;;;24.48;4.68;;;21.00;99.10;;;;;;5025970;28;20035;-82
2023/09/20 09:37:07;;;;;;;8.68;2.70;;;21.00;99.10;;;;;;5050954;28;20106;-83
2023/09/20 09:39:33;;;;;;;12.55;3.15;;;21.00;99.00;;;;;;5019218;28;20049;-83
2023/09/20 09:42:00;;;;;;;39.00;9.52;;;21.00;98.90;;;;;;5061349;28;20042;-83
2023/09/20 09:44:26;;;;;;;126.70;22.42;;;21.00;98.80;;;;;;5054865;28;20115;-83
2023/09/20 09:46:54;;;;;;;35.55;8.57;;;21.00;98.70;;;;;;5003347;28;20104;-83
2023/09/20 09:49:20;;;;;;;40.00;7.50;;;21.10;98.70;;;;;;5027103;28;20368;-84
2023/09/20 09:51:54;;;;;;;26.45;5.68;;;21.10;98.70;;;;;;5034153;28;20044;-83
2023/09/20 09:54:21;;;;;;;44.63;6.65;;;21.10;98.70;;;;;;5034873;28;20053;-83
2023/09/20 09:56:48;;;;;;;348.45;49.50;;;21.10;98.60;;;;;;5036186;28;20032;-84
2023/09/20 09:59:14;;;;;;;83.28;18.08;;;21.10;98.60;;;;;;5054365;28;20025;-83
2023/09/20 10:01:41;;;;;;;39.85;8.23;;;21.20;98.60;;;;;;5019881;28;20021;-83
2023/09/20 10:04:10;;;;;;;12.88;4.20;;;21.20;98.50;;;;;;5033761;28;20031;-83
2023/09/20 10:06:50;;;;;;;12.73;3.80;;;21.20;98.50;;;;;;5032889;28;20017;-83
2023/09/20 10:09:21;;;;;;;4.73;2.97;;;21.30;98.40;;;;;;5019743;28;20025;-83
2023/09/20 10:11:48;;;;;;;26.65;5.57;;;21.20;98.30;;;;;;5044567;28;20682;-82
2023/09/20 10:14:14;;;;;;;15.35;3.92;;;21.30;98.40;;;;;;5045061;28;20024;-83
2023/09/20 10:16:42;;;;;;;6.28;2.88;;;21.30;98.40;;;;;;5029076;28;20018;-82
2023/09/20 10:19:12;;;;;;;50.97;8.35;;;21.30;98.40;;;;;;5063976;28;20017;-83
2023/09/20 10:21:40;;;;;;;30.33;6.68;;;21.40;98.40;;;;;;5062561;28;20027;-83
2023/09/20 10:24:14;;;;;;;10.63;3.88;;;21.40;98.40;;;;;;5060328;28;20070;-83
2023/09/20 10:26:40;;;;;;;8.20;2.25;;;21.40;98.30;;;;;;5050453;28;20081;-82
2023/09/20 10:29:39;;;;;;;4.78;2.22;;;21.40;98.30;;;;;;5023024;28;20049;-82
2023/09/20 10:32:08;;;;;;;3.10;2.00;;;21.40;98.20;;;;;;5015912;28;20041;-81
2023/09/20 10:34:37;;;;;;;3.58;1.50;;;21.40;98.30;;;;;;5025399;28;20032;-82
2023/09/20 10:37:08;;;;;;;3.33;1.88;;;21.40;98.30;;;;;;5019576;28;20032;-83
2023/09/20 10:39:34;;;;;;;3.15;1.60;;;21.40;98.30;;;;;;5036115;28;20108;-82
2023/09/20 10:42:14;;;;;;;2.47;1.70;;;21.40;98.40;;;;;;5019928;28;20088;-83
2023/09/20 10:44:43;;;;;;;2.13;1.73;;;21.40;98.30;;;;;;5019286;28;20025;-82
2023/09/20 10:47:14;;;;;;;2.95;1.83;;;21.40;98.30;;;;;;5035860;28;20013;-83
2023/09/20 10:49:48;;;;;;;3.97;1.80;;;21.50;98.40;;;;;;5052432;28;20090;-83
2023/09/20 10:52:32;;;;;;;4.30;1.75;;;21.60;98.40;;;;;;5035384;28;20104;-83
2023/09/20 10:55:18;;;;;;;4.93;1.85;;;21.70;98.40;;;;;;5053126;28;20017;-83
2023/09/20 10:57:45;;;;;;;2.50;1.60;;;21.70;98.30;;;;;;5035164;28;20040;-83
2023/09/20 11:00:14;;;;;;;3.47;1.95;;;21.70;98.20;;;;;;5035537;28;20048;-83
2023/09/20 11:02:41;;;;;;;2.67;1.80;;;21.80;98.20;;;;;;5034902;28;20353;-83
2023/09/20 11:05:07;;;;;;;2.53;1.50;;;21.80;98.20;;;;;;5030692;28;20041;-82
2023/09/20 11:07:33;;;;;;;3.00;1.55;;;21.70;98.20;;;;;;5018598;28;20024;-82
2023/09/20 11:09:59;;;;;;;3.20;1.60;;;21.80;98.30;;;;;;5035062;28;20033;-83
2023/09/20 11:12:25;;;;;;;2.47;1.45;;;21.90;98.30;;;;;;5017989;28;20475;-83
2023/09/20 11:14:54;;;;;;;3.40;1.25;;;21.90;98.20;;;;;;5015581;28;20047;-83
2023/09/20 11:17:20;;;;;;;5.88;1.40;;;21.90;98.10;;;;;;5024798;28;20025;-83
2023/09/20 11:19:47;;;;;;;3.50;1.52;;;22.00;98.00;;;;;;5006624;28;20056;-83
2023/09/20 11:22:17;;;;;;;1.60;1.20;;;22.00;98.00;;;;;;5035976;28;20013;-83
2023/09/20 11:24:43;;;;;;;2.80;1.73;;;22.10;98.00;;;;;;5018895;28;20021;-83
2023/09/20 11:27:11;;;;;;;2.72;1.20;;;22.20;98.00;;;;;;5019201;28;20079;-83
2023/09/20 11:29:40;;;;;;;3.45;1.70;;;22.30;98.00;;;;;;5048052;28;20024;-83
2023/09/20 11:32:10;;;;;;;1.83;1.20;;;22.30;98.00;;;;;;5038767;28;20559;-82
2023/09/20 11:34:44;;;;;;;2.35;1.52;;;22.40;97.90;;;;;;5038429;28;20060;-82
2023/09/20 11:37:10;;;;;;;3.45;1.50;;;22.40;97.80;;;;;;5038692;28;20334;-83
2023/09/20 11:39:35;;;;;;;1.92;1.00;;;22.40;97.80;;;;;;5038536;28;20175;-82
2023/09/20 11:42:04;;;;;;;1.90;1.23;;;22.50;97.80;;;;;;5022060;28;20029;-82
2023/09/20 11:44:34;;;;;;;3.00;1.40;;;22.50;97.80;;;;;;5056132;28;20041;-82
2023/09/20 11:47:00;;;;;;;2.03;1.43;;;22.50;97.70;;;;;;5038510;28;20020;-83
2023/09/20 11:49:27;;;;;;;3.28;1.45;;;22.50;97.60;;;;;;5038609;28;20051;-82
2023/09/20 11:51:57;;;;;;;4.55;1.30;;;22.60;97.60;;;;;;5038160;28;20051;-82
2023/09/20 11:54:37;;;;;;;1.60;1.10;;;22.50;97.50;;;;;;5037861;28;20346;-83
2023/09/20 11:57:03;;;;;;;3.33;1.20;;;22.50;97.50;;;;;;5007245;28;20021;-82
2023/09/20 11:59:29;;;;;;;2.45;1.02;;;22.60;97.50;;;;;;5038338;28;20047;-82
2023/09/20 12:01:55;;;;;;;1.80;1.00;;;22.50;97.50;;;;;;5037990;28;20021;-83
2023/09/20 12:04:21;;;;;;;2.58;1.27;;;22.50;97.40;;;;;;5022208;28;20092;-83
2023/09/20 12:06:47;;;;;;;1.77;1.17;;;22.50;97.30;;;;;;5021034;28;20465;-83
2023/09/20 12:09:13;;;;;;;1.67;1.25;;;22.50;97.20;;;;;;5021643;28;20017;-82
2023/09/20 12:11:40;;;;;;;1.95;1.17;;;22.50;97.20;;;;;;5037811;28;20048;-82
2023/09/20 12:14:12;;;;;;;2.78;1.30;;;22.50;97.10;;;;;;5022185;28;20048;-83
2023/09/20 12:16:38;;;;;;;2.47;1.20;;;22.50;97.00;;;;;;5037744;28;20021;-83
2023/09/20 12:19:04;;;;;;;2.15;1.23;;;22.50;97.00;;;;;;5021538;28;20095;-82
2023/09/20 12:21:30;;;;;;;1.77;1.25;;;22.50;97.00;;;;;;5027910;28;20123;-82
2023/09/20 12:23:56;;;;;;;2.25;1.08;;;22.60;97.00;;;;;;5053242;28;20017;-82
2023/09/20 12:26:21;;;;;;;3.58;1.02;;;22.60;97.10;;;;;;5080078;28;20028;-82
2023/09/20 12:28:47;;;;;;;5.28;1.25;;;22.60;97.20;;;;;;5061671;28;20029;-82
2023/09/20 12:31:13;;;;;;;2.60;1.15;;;22.70;97.10;;;;;;5045858;28;20052;-81
2023/09/20 12:33:39;;;;;;;3.08;1.23;;;22.70;97.00;;;;;;5029427;28;20013;-82
2023/09/20 12:36:07;;;;;;;2.65;1.35;;;22.70;96.80;;;;;;5040008;28;20025;-79
2023/09/20 12:38:34;;;;;;;2.53;0.93;;;22.70;96.80;;;;;;5054938;28;20028;-81
2023/09/20 12:41:00;;;;;;;3.53;0.98;;;22.80;96.80;;;;;;5046058;28;20480;-83
2023/09/20 12:43:26;;;;;;;2.90;1.02;;;22.80;96.80;;;;;;5022803;28;20132;-82
2023/09/20 12:45:52;;;;;;;2.13;1.17;;;22.80;96.70;;;;;;5026130;28;20033;-82
2023/09/20 12:48:19;;;;;;;1.30;1.13;;;22.80;96.60;;;;;;5001810;28;20014;-83
2023/09/20 12:50:46;;;;;;;2.13;1.15;;;22.80;96.50;;;;;;5001301;28;20029;-83
2023/09/20 12:53:12;;;;;;;3.50;1.42;;;22.70;96.40;;;;;;5046560;28;20025;-82
2023/09/20 12:55:39;;;;;;;2.53;1.10;;;22.70;96.40;;;;;;5037304;28;20017;-82
2023/09/20 12:58:06;;;;;;;2.35;1.30;;;22.70;96.40;;;;;;5021056;28;20017;-83
2023/09/20 13:00:33;;;;;;;1.75;1.20;;;22.70;96.30;;;;;;5021009;28;20395;-83
2023/09/20 13:02:59;;;;;;;2.95;1.20;;;22.70;96.30;;;;;;5036945;28;20109;-82
2023/09/20 13:05:26;;;;;;;2.60;1.40;;;22.70;96.30;;;;;;5020441;28;20427;-83
2023/09/20 13:07:51;;;;;;;2.92;1.38;;;22.70;96.20;;;;;;5054406;28;20110;-82
2023/09/20 13:10:19;;;;;;;2.08;1.10;;;22.70;96.20;;;;;;5035945;28;20057;-82
2023/09/20 13:12:47;;;;;;;1.63;1.10;;;22.70;96.20;;;;;;5036880;28;20028;-82
2023/09/20 13:15:14;;;;;;;1.02;0.80;;;22.70;96.20;;;;;;5037113;28;20025;-82
2023/09/20 13:17:44;;;;;;;3.33;1.52;;;22.70;96.10;;;;;;5020060;28;20048;-82
2023/09/20 13:20:13;;;;;;;3.15;1.20;;;22.80;96.10;;;;;;5054296;28;20040;-82
2023/09/20 13:22:42;;;;;;;3.40;1.30;;;22.80;96.40;;;;;;5036679;28;20024;-83
2023/09/20 13:25:09;;;;;;;2.05;1.20;;;22.80;96.10;;;;;;5036698;28;20411;-83
2023/09/20 13:27:38;;;;;;;1.60;1.20;;;22.90;96.00;;;;;;5036668;28;20364;-83
2023/09/20 13:30:10;;;;;;;2.47;1.73;;;22.90;95.90;;;;;;5019692;28;20477;-83